Time;durP1;ratioP1;P1;durP2;ratioP2;P2;SDS_P1;SDS_P2;PMS_P1;PMS_P2;Temp;Humidity;BMP_temperature;BMP_pressure;BME280_temperature;BME280_humidity;BME280_pressure;Samples;Min_cycle;Max_cycle;Signal;HPM_P1;HPM_P2
2023/08/27 00:00:55;;;;;;;1.83;0.90;;;;;;;23.08;45.44;100710.06;5055372;28;20067;-63
2023/08/27 00:03:21;;;;;;;1.17;0.80;;;;;;;23.05;46.36;100702.28;5056528;28;20404;-62
2023/08/27 00:05:47;;;;;;;1.88;1.67;;;;;;;23.03;45.75;100709.88;5055234;28;20477;-62
2023/08/27 00:08:13;;;;;;;3.80;1.17;;;;;;;23.00;45.54;100707.56;5055080;28;20035;-62
2023/08/27 00:10:39;;;;;;;3.63;0.90;;;;;;;22.97;45.89;100705.25;5056602;28;20029;-62
2023/08/27 00:13:04;;;;;;;2.33;1.35;;;;;;;22.97;46.47;100705.25;5055263;28;20033;-62
2023/08/27 00:15:29;;;;;;;4.53;0.90;;;;;;;22.94;46.31;100701.06;5056096;28;20039;-63
2023/08/27 00:17:55;;;;;;;6.72;0.85;;;;;;;22.91;46.27;100695.19;5056562;28;20034;-62
2023/08/27 00:20:21;;;;;;;2.70;1.35;;;;;;;22.91;46.09;100695.19;5056224;28;20400;-62
2023/08/27 00:22:46;;;;;;;1.30;0.73;;;;;;;22.90;46.20;100688.03;5056464;28;20037;-62
2023/08/27 00:25:12;;;;;;;1.65;1.02;;;;;;;22.92;45.63;100696.88;5055832;28;20025;-62
2023/08/27 00:27:37;;;;;;;1.80;1.13;;;;;;;22.90;45.77;100699.78;5055316;28;20098;-63
2023/08/27 00:30:06;;;;;;;3.20;1.10;;;;;;;22.92;45.89;100696.88;5054844;28;20033;-62
2023/08/27 00:32:33;;;;;;;1.55;1.00;;;;;;;22.94;46.44;100678.38;5054970;28;20037;-62
2023/08/27 00:35:03;;;;;;;3.42;1.23;;;;;;;22.95;46.04;100678.13;5056262;28;20033;-62
2023/08/27 00:37:29;;;;;;;1.77;1.00;;;;;;;23.00;46.86;100677.50;5054794;28;20079;-62
2023/08/27 00:39:55;;;;;;;1.52;1.02;;;;;;;23.00;46.48;100659.19;5054923;28;20037;-62
2023/08/27 00:42:20;;;;;;;2.22;1.42;;;;;;;23.06;46.82;100660.25;5055963;28;20039;-62
2023/08/27 00:44:45;;;;;;;1.90;1.30;;;;;;;23.08;46.86;100658.16;5054791;28;20527;-62
2023/08/27 00:47:12;;;;;;;2.95;1.33;;;;;;;23.11;46.29;100649.53;5055691;28;20451;-62
2023/08/27 00:49:38;;;;;;;1.67;1.25;;;;;;;23.11;46.89;100646.78;5055808;28;20044;-62
2023/08/27 00:52:05;;;;;;;1.48;1.20;;;;;;;23.11;46.19;100649.53;5037843;28;20037;-62
2023/08/27 00:54:31;;;;;;;3.00;1.08;;;;;;;23.11;46.06;100646.78;5054047;28;20413;-62
2023/08/27 00:56:57;;;;;;;1.25;0.95;;;;;;;23.08;46.14;100641.75;5054309;28;20041;-62
2023/08/27 00:59:22;;;;;;;1.92;0.90;;;;;;;23.05;46.60;100642.19;5055473;28;20591;-62
2023/08/27 01:01:48;;;;;;;1.52;1.00;;;;;;;23.00;46.91;100645.53;5054378;28;20033;-62
2023/08/27 01:04:13;;;;;;;3.80;1.20;;;;;;;22.97;46.95;100643.25;5054226;28;20033;-62
2023/08/27 01:06:38;;;;;;;9.35;1.48;;;;;;;22.92;46.00;100642.22;5055875;28;20036;-62
2023/08/27 01:09:32;;;;;;;3.15;1.05;;;;;;;22.88;46.99;100643.69;5055355;28;20086;-62
2023/08/27 01:12:00;;;;;;;1.23;1.13;;;;;;;22.81;46.12;100645.63;5054337;28;20440;-62
2023/08/27 01:14:27;;;;;;;3.72;1.20;;;;;;;22.73;46.71;100641.19;5053977;28;20090;-61
2023/08/27 01:16:53;;;;;;;3.42;1.10;;;;;;;22.70;46.80;100649.00;5053846;28;20029;-62
2023/08/27 01:19:20;;;;;;;3.38;1.52;;;;;;;22.62;46.15;100648.13;5053616;28;20044;-62
2023/08/27 01:21:45;;;;;;;4.25;1.15;;;;;;;22.57;46.59;100650.66;5053984;28;20044;-62
2023/08/27 01:24:10;;;;;;;2.58;1.17;;;;;;;22.54;46.76;100662.00;5054309;28;20037;-62
2023/08/27 01:26:44;;;;;;;2.40;1.20;;;;;;;22.47;46.54;100661.13;5055245;28;20399;-62
2023/08/27 01:29:28;;;;;;;4.30;0.93;;;;;;;22.39;46.90;100658.63;5053681;28;20067;-63
2023/08/27 01:32:04;;;;;;;1.70;0.98;;;;;;;22.37;47.03;100671.66;5053362;28;20135;-62
2023/08/27 01:34:30;;;;;;;1.33;1.00;;;;;;;22.34;47.45;100674.78;5053519;28;20033;-62
2023/08/27 01:36:57;;;;;;;1.27;1.08;;;;;;;22.34;47.42;100674.78;5037133;28;20541;-63
2023/08/27 01:39:22;;;;;;;2.33;0.80;;;;;;;22.32;46.61;100665.13;5053933;28;20045;-62
2023/08/27 01:41:47;;;;;;;3.55;1.05;;;;;;;22.31;47.60;100666.19;5053658;28;20463;-62
2023/08/27 01:44:13;;;;;;;1.83;1.20;;;;;;;22.30;47.38;100659.91;5053365;28;20036;-62
2023/08/27 01:46:38;;;;;;;4.63;0.88;;;;;;;22.33;47.77;100664.94;5053481;28;20064;-62
2023/08/27 01:49:04;;;;;;;4.78;1.00;;;;;;;22.32;47.37;100657.78;5053186;28;20025;-62
2023/08/27 01:51:29;;;;;;;2.50;1.23;;;;;;;22.36;46.88;100663.69;5054714;28;20051;-62
2023/08/27 01:53:54;;;;;;;3.40;1.30;;;;;;;22.36;47.72;100664.50;5054496;28;20112;-62
2023/08/27 01:56:20;;;;;;;1.90;0.98;;;;;;;22.37;47.75;100657.16;5053480;28;20392;-64
2023/08/27 01:58:45;;;;;;;0.98;0.80;;;;;;;22.37;47.90;100649.81;5036650;28;20029;-64
2023/08/27 02:01:10;;;;;;;1.40;1.30;;;;;;;22.36;47.00;100653.56;5054545;28;20057;-64
2023/08/27 02:03:36;;;;;;;3.53;1.10;;;;;;;22.38;47.33;100651.50;5054508;28;20057;-64
2023/08/27 02:06:01;;;;;;;2.88;1.10;;;;;;;22.40;48.22;100648.53;5056466;28;20040;-64
2023/08/27 02:08:26;;;;;;;2.00;1.00;;;;;;;22.40;48.03;100654.84;5074519;28;20036;-64
2023/08/27 02:10:52;;;;;;;3.60;0.70;;;;;;;22.41;47.45;100644.78;5073115;28;20510;-64
2023/08/27 02:13:17;;;;;;;2.30;1.13;;;;;;;22.42;47.42;100652.75;5074340;28;20033;-65
2023/08/27 02:15:43;;;;;;;2.75;0.88;;;;;;;22.42;47.70;100630.06;5072158;28;20052;-64
2023/08/27 02:18:09;;;;;;;1.30;1.10;;;;;;;22.44;48.06;100634.28;5072700;28;20621;-65
2023/08/27 02:20:34;;;;;;;2.28;1.00;;;;;;;22.47;47.54;100631.09;5073741;28;20056;-64
2023/08/27 02:23:00;;;;;;;2.42;1.23;;;;;;;22.48;48.37;100621.88;5074313;28;20041;-64
2023/08/27 02:25:25;;;;;;;0.88;0.88;;;;;;;22.50;48.23;100627.94;5074376;28;20032;-64
2023/08/27 02:27:50;;;;;;;2.15;1.30;;;;;;;22.50;47.93;100625.22;5056276;28;20032;-64
2023/08/27 02:30:16;;;;;;;1.30;1.20;;;;;;;22.54;47.86;100631.97;5074417;28;20086;-64
2023/08/27 02:32:41;;;;;;;1.50;1.00;;;;;;;22.53;48.07;100627.53;5073284;28;20120;-64
2023/08/27 02:35:07;;;;;;;1.75;1.23;;;;;;;22.57;47.46;100634.25;5074347;28;20499;-64
2023/08/27 02:37:32;;;;;;;4.75;1.23;;;;;;;22.59;48.75;100634.03;5073065;28;20554;-64
2023/08/27 02:39:58;;;;;;;2.20;1.30;;;;;;;22.59;47.93;100632.16;5074055;28;20059;-64
2023/08/27 02:42:23;;;;;;;3.65;1.58;;;;;;;22.65;47.71;100640.56;5056040;28;20032;-64
2023/08/27 02:44:49;;;;;;;3.25;1.30;;;;;;;22.68;48.65;100626.50;5066195;28;20028;-64
2023/08/27 02:47:14;;;;;;;1.67;1.20;;;;;;;22.69;48.56;100620.00;5055782;28;20032;-64
2023/08/27 02:49:39;;;;;;;1.95;1.35;;;;;;;22.72;48.82;100617.69;5072299;28;20028;-64
2023/08/27 02:52:05;;;;;;;8.88;2.53;;;;;;;22.74;48.79;100617.47;5072031;28;20082;-65
2023/08/27 02:54:30;;;;;;;3.58;1.20;;;;;;;22.74;48.65;100603.81;5071307;28;20123;-64
2023/08/27 02:56:56;;;;;;;1.40;1.20;;;;;;;22.74;48.90;100606.53;5073540;28;20048;-64
2023/08/27 02:59:21;;;;;;;1.70;0.90;;;;;;;22.73;48.03;100600.22;5072186;28;20045;-64
2023/08/27 03:01:47;;;;;;;2.05;1.23;;;;;;;22.73;48.77;100613.88;5055462;28;20044;-64
2023/08/27 03:04:12;;;;;;;2.17;1.40;;;;;;;22.72;48.74;100630.50;5073510;28;20041;-63
2023/08/27 03:06:38;;;;;;;1.83;1.50;;;;;;;22.68;48.65;100619.16;5071878;28;20509;-62
2023/08/27 03:09:04;;;;;;;3.17;1.38;;;;;;;22.68;48.01;100631.97;5071795;28;20050;-63
2023/08/27 03:11:29;;;;;;;6.30;1.65;;;;;;;22.70;48.44;100621.69;5055326;28;20036;-62
2023/08/27 03:13:54;;;;;;;1.38;1.27;;;;;;;22.71;48.59;100620.59;5072824;28;20381;-62
2023/08/27 03:16:20;;;;;;;3.22;1.10;;;;;;;22.74;48.98;100620.19;5073148;28;20108;-62
2023/08/27 03:18:46;;;;;;;2.60;1.30;;;;;;;22.75;48.97;100613.69;5071955;28;20028;-62
2023/08/27 03:21:12;;;;;;;4.13;1.30;;;;;;;22.77;48.87;100611.56;5071446;28;20040;-62
2023/08/27 03:23:37;;;;;;;1.13;0.95;;;;;;;22.79;48.26;100613.03;5071741;28;20040;-62
2023/08/27 03:26:03;;;;;;;4.47;1.48;;;;;;;22.83;48.67;100611.56;5070701;28;20032;-62
2023/08/27 03:28:29;;;;;;;2.13;0.88;;;;;;;22.88;48.53;100625.41;5071572;28;20400;-63
2023/08/27 03:30:54;;;;;;;1.15;1.10;;;;;;;22.88;47.86;100619.94;5072961;28;20499;-62
2023/08/27 03:33:19;;;;;;;3.75;1.33;;;;;;;22.91;48.13;100618.69;5071666;28;20047;-62
2023/08/27 03:35:53;;;;;;;3.47;1.13;;;;;;;22.95;48.39;100625.38;5071984;28;20036;-62
2023/08/27 03:38:19;;;;;;;1.48;1.25;;;;;;;22.95;48.75;100626.22;5048603;28;20028;-62
2023/08/27 03:40:53;;;;;;;4.70;1.48;;;;;;;22.90;48.70;100628.75;5072544;28;20037;-62
2023/08/27 03:43:19;;;;;;;6.43;2.15;;;;;;;22.92;48.40;100642.22;5073030;28;20044;-62
2023/08/27 03:45:44;;;;;;;4.25;1.60;;;;;;;22.91;49.52;100632.34;5072913;28;20032;-62
2023/08/27 03:48:10;;;;;;;3.45;1.20;;;;;;;22.86;49.34;100626.69;5073949;28;20083;-62
2023/08/27 03:50:36;;;;;;;3.08;1.15;;;;;;;22.79;49.12;100604.84;5074077;28;20082;-62
2023/08/27 03:53:02;;;;;;;3.25;1.23;;;;;;;22.74;49.66;100617.47;5074124;28;20028;-62
2023/08/27 03:55:28;;;;;;;2.42;1.38;;;;;;;22.69;48.91;100614.53;5072914;28;20111;-62
2023/08/27 03:57:54;;;;;;;3.70;1.35;;;;;;;22.64;49.79;100633.44;5073814;28;20113;-62
2023/08/27 04:00:20;;;;;;;2.08;1.38;;;;;;;22.61;49.83;100640.16;5073810;28;20031;-64
2023/08/27 04:02:45;;;;;;;7.97;1.90;;;;;;;22.60;49.73;100644.75;5073717;28;20048;-63
2023/08/27 04:05:11;;;;;;;2.72;1.27;;;;;;;22.64;49.90;100636.19;5073697;28;20062;-62
2023/08/27 04:07:37;;;;;;;1.67;1.08;;;;;;;22.65;49.74;100640.56;5071992;28;20078;-63
2023/08/27 04:10:04;;;;;;;2.45;1.83;;;;;;;22.68;49.22;100640.16;5072185;28;20039;-62
2023/08/27 04:12:31;;;;;;;2.67;1.13;;;;;;;22.66;49.52;100642.25;5072432;28;20115;-62
2023/08/27 04:14:57;;;;;;;1.33;1.23;;;;;;;22.69;49.29;100639.97;5073138;28;20033;-63
2023/08/27 04:17:22;;;;;;;1.13;1.00;;;;;;;22.70;48.83;100635.34;5072554;28;20024;-62
2023/08/27 04:19:48;;;;;;;2.33;1.20;;;;;;;22.69;49.42;100641.84;5072833;28;20400;-63
2023/08/27 04:22:14;;;;;;;4.70;1.20;;;;;;;22.72;49.59;100644.16;5073552;28;20056;-63
2023/08/27 04:24:39;;;;;;;3.58;1.30;;;;;;;22.72;49.91;100641.41;5074421;28;20492;-62
2023/08/27 04:27:04;;;;;;;3.28;1.45;;;;;;;22.73;48.96;100640.34;5073516;28;20024;-62
2023/08/27 04:29:31;;;;;;;2.28;1.35;;;;;;;22.74;49.03;100639.31;5072274;28;20036;-62
2023/08/27 04:31:56;;;;;;;3.45;1.30;;;;;;;22.75;49.33;100649.19;5072358;28;20120;-62
2023/08/27 04:34:22;;;;;;;1.55;1.23;;;;;;;22.75;49.12;100649.19;5072353;28;20108;-62
2023/08/27 04:36:47;;;;;;;1.65;1.23;;;;;;;22.75;49.97;100646.47;5071131;28;20561;-62
2023/08/27 04:39:13;;;;;;;4.68;1.55;;;;;;;22.76;48.97;100645.38;5074626;28;20037;-62
2023/08/27 04:41:39;;;;;;;1.25;1.10;;;;;;;22.75;49.04;100641.84;5076147;28;20036;-63
2023/08/27 04:44:05;;;;;;;3.90;1.65;;;;;;;22.73;49.35;100637.63;5058534;28;20032;-62
2023/08/27 04:46:31;;;;;;;1.20;1.10;;;;;;;22.68;49.19;100640.16;5076008;28;20033;-63
2023/08/27 04:48:56;;;;;;;3.05;1.02;;;;;;;22.68;48.73;100653.81;5075715;28;20040;-62
2023/08/27 04:51:21;;;;;;;1.88;1.40;;;;;;;22.64;49.28;100658.03;5074739;28;20047;-62
2023/08/27 04:53:47;;;;;;;5.20;1.27;;;;;;;22.64;49.21;100660.75;5074544;28;20561;-63
2023/08/27 04:56:12;;;;;;;2.63;1.58;;;;;;;22.58;49.17;100646.84;5074472;28;20028;-62
2023/08/27 04:58:38;;;;;;;2.70;1.30;;;;;;;22.60;49.09;100658.41;5074347;28;20050;-62
2023/08/27 05:01:03;;;;;;;3.15;1.33;;;;;;;22.57;49.37;100649.81;5057706;28;20051;-62
2023/08/27 05:03:28;;;;;;;2.45;1.35;;;;;;;22.50;49.05;100643.53;5074116;28;20031;-62
2023/08/27 05:05:54;;;;;;;2.25;1.55;;;;;;;22.47;49.38;100654.88;5074545;28;20450;-62
2023/08/27 05:08:19;;;;;;;3.47;1.50;;;;;;;22.43;49.31;100651.72;5074216;28;20029;-62
2023/08/27 05:10:45;;;;;;;5.22;1.30;;;;;;;22.39;49.75;100639.50;5074140;28;20029;-62
2023/08/27 05:13:10;;;;;;;4.60;1.58;;;;;;;22.40;49.92;100637.63;5074056;28;20037;-61
2023/08/27 05:15:36;;;;;;;2.05;1.08;;;;;;;22.40;50.16;100643.09;5074046;28;20033;-62
2023/08/27 05:18:02;;;;;;;2.25;1.63;;;;;;;22.39;50.27;100642.25;5073891;28;20028;-62
2023/08/27 05:20:28;;;;;;;1.30;1.00;;;;;;;22.37;50.14;100632.59;5074005;28;20128;-62
2023/08/27 05:22:53;;;;;;;5.35;1.42;;;;;;;22.35;50.03;100651.91;5074009;28;20123;-62
2023/08/27 05:25:19;;;;;;;2.30;1.08;;;;;;;22.31;50.00;100656.09;5075051;28;20638;-61
2023/08/27 05:27:44;;;;;;;4.65;1.38;;;;;;;22.24;50.35;100644.34;5056569;28;20104;-62
2023/08/27 05:30:12;;;;;;;7.38;2.75;;;;;;;22.23;50.12;100647.28;5073818;28;20052;-62
2023/08/27 05:32:39;;;;;;;3.55;1.65;;;;;;;22.17;50.54;100638.03;5075380;28;20063;-62
2023/08/27 05:35:04;;;;;;;3.53;1.50;;;;;;;22.19;50.81;100646.03;5075180;28;20036;-62
2023/08/27 05:37:29;;;;;;;1.77;1.27;;;;;;;22.17;51.09;100648.97;5073578;28;20028;-61
2023/08/27 05:39:55;;;;;;;2.58;1.50;;;;;;;22.21;50.46;100652.97;5057024;28;20403;-62
2023/08/27 05:42:20;;;;;;;2.22;1.50;;;;;;;22.24;50.49;100651.69;5074800;28;20514;-62
2023/08/27 05:44:46;;;;;;;3.42;1.63;;;;;;;22.25;51.43;100646.03;5074811;28;20032;-62
2023/08/27 05:47:12;;;;;;;2.90;1.77;;;;;;;22.29;50.59;100643.72;5073136;28;20036;-62
2023/08/27 05:49:38;;;;;;;5.60;1.88;;;;;;;22.33;50.51;100637.66;5055865;28;20108;-62
2023/08/27 05:52:03;;;;;;;2.70;1.60;;;;;;;22.38;50.74;100651.50;5074782;28;20037;-62
2023/08/27 05:54:29;;;;;;;2.10;1.40;;;;;;;22.44;50.85;100647.94;5074908;28;20025;-62
2023/08/27 05:56:54;;;;;;;5.05;2.95;;;;;;;22.47;50.89;100661.13;5074751;28;20032;-62
2023/08/27 05:59:20;;;;;;;2.25;1.35;;;;;;;22.52;50.61;100664.09;5073367;28;20029;-61
2023/08/27 06:01:45;;;;;;;3.10;1.52;;;;;;;22.68;49.90;100668.31;5073194;28;20053;-62
2023/08/27 06:04:10;;;;;;;1.90;1.50;;;;;;;22.70;50.47;100659.91;5073243;28;20039;-62
2023/08/27 06:06:37;;;;;;;4.45;1.55;;;;;;;22.82;49.99;100660.94;5074317;28;20404;-61
2023/08/27 06:09:03;;;;;;;4.13;1.50;;;;;;;22.87;49.73;100666.59;5074165;28;20418;-61
2023/08/27 06:11:29;;;;;;;5.80;2.13;;;;;;;22.95;49.60;100666.34;5073075;28;20044;-62
2023/08/27 06:13:54;;;;;;;2.30;1.98;;;;;;;23.07;49.97;100664.66;5073978;28;20032;-62
2023/08/27 06:16:19;;;;;;;4.82;1.80;;;;;;;23.11;50.15;100660.47;5073988;28;20036;-62
2023/08/27 06:18:45;;;;;;;3.15;1.60;;;;;;;23.13;49.76;100653.72;5072412;28;20029;-62
2023/08/27 06:21:10;;;;;;;3.63;2.70;;;;;;;23.31;49.47;100653.00;5072688;28;20118;-62
2023/08/27 06:23:35;;;;;;;2.47;1.77;;;;;;;23.61;49.29;100647.88;5072663;28;20036;-63
2023/08/27 06:26:05;;;;;;;4.13;2.05;;;;;;;23.95;48.48;100643.88;5073774;28;20116;-62
2023/08/27 06:28:30;;;;;;;6.82;2.35;;;;;;;24.27;48.54;100648.28;5073273;28;20052;-63
2023/08/27 06:30:56;;;;;;;3.25;1.73;;;;;;;24.45;48.70;100639.31;5072496;28;20389;-63
2023/08/27 06:33:21;;;;;;;2.10;1.88;;;;;;;24.51;48.51;100639.22;5072512;28;20048;-63
2023/08/27 06:35:46;;;;;;;2.28;1.70;;;;;;;24.57;48.70;100637.50;5073845;28;20503;-62
2023/08/27 06:38:12;;;;;;;2.47;1.30;;;;;;;24.72;48.61;100647.06;5072372;28;20387;-62
2023/08/27 06:40:37;;;;;;;2.67;1.83;;;;;;;24.70;48.41;100646.44;5074051;28;20059;-62
2023/08/27 06:43:03;;;;;;;2.45;1.98;;;;;;;24.71;48.89;100648.09;5067735;28;20505;-62
2023/08/27 06:45:28;;;;;;;2.20;1.10;;;;;;;24.77;49.10;100652.69;5062367;28;20041;-62
2023/08/27 06:47:55;;;;;;;1.85;1.20;;;;;;;24.78;48.51;100643.41;5060718;28;20040;-62
2023/08/27 06:50:20;;;;;;;1.30;0.85;;;;;;;24.84;48.68;100644.44;5046199;28;20053;-62
2023/08/27 06:52:46;;;;;;;3.42;1.77;;;;;;;24.88;48.11;100640.16;5073515;28;20055;-62
2023/08/27 06:55:12;;;;;;;1.00;0.85;;;;;;;24.90;47.97;100644.34;5073700;28;20042;-62
2023/08/27 06:57:38;;;;;;;2.03;1.17;;;;;;;24.90;48.06;100643.53;5073595;28;20024;-62
2023/08/27 07:00:07;;;;;;;1.88;1.00;;;;;;;24.96;47.77;100647.28;5072228;28;20067;-62
2023/08/27 07:02:32;;;;;;;1.38;0.80;;;;;;;25.08;47.39;100656.41;5072370;28;20028;-62
2023/08/27 07:04:58;;;;;;;3.10;1.00;;;;;;;25.08;47.08;100645.44;5071835;28;20522;-62
2023/08/27 07:07:25;;;;;;;2.88;0.90;;;;;;;25.10;47.41;100643.31;5063824;28;20033;-62
2023/08/27 07:09:50;;;;;;;6.07;0.88;;;;;;;25.09;47.46;100645.22;5055672;28;20428;-62
2023/08/27 07:12:16;;;;;;;2.40;1.52;;;;;;;25.11;47.17;100644.97;5071849;28;20102;-62
2023/08/27 07:14:41;;;;;;;6.53;3.08;;;;;;;25.17;47.19;100649.56;5073234;28;20036;-62
2023/08/27 07:17:07;;;;;;;3.92;1.90;;;;;;;25.20;47.36;100649.09;5055110;28;20403;-62
2023/08/27 07:19:32;;;;;;;6.65;1.52;;;;;;;25.24;46.95;100651.13;5073014;28;20064;-62
2023/08/27 07:21:58;;;;;;;2.42;1.30;;;;;;;25.25;47.27;100649.25;5054886;28;20044;-61
2023/08/27 07:24:23;;;;;;;3.95;1.27;;;;;;;25.27;47.02;100649.84;5071824;28;20128;-62
2023/08/27 07:26:48;;;;;;;3.70;1.40;;;;;;;25.32;46.97;100658.25;5054880;28;20033;-62
2023/08/27 07:29:14;;;;;;;2.97;1.08;;;;;;;25.33;47.05;100652.50;5071579;28;20037;-62
2023/08/27 07:31:40;;;;;;;3.97;1.42;;;;;;;25.40;47.28;100649.69;5071724;28;20039;-63
2023/08/27 07:34:05;;;;;;;3.90;1.50;;;;;;;25.45;47.01;100647.09;5071828;28;20437;-62
2023/08/27 07:36:30;;;;;;;3.75;1.00;;;;;;;25.48;46.83;100645.81;5054903;28;20043;-62
2023/08/27 07:38:57;;;;;;;2.03;1.00;;;;;;;25.53;46.86;100649.56;5054793;28;20081;-62
2023/08/27 07:41:23;;;;;;;4.32;1.42;;;;;;;25.61;46.17;100641.00;5072523;28;20086;-62
2023/08/27 07:43:48;;;;;;;2.92;0.90;;;;;;;25.68;46.62;100655.47;5054808;28;20025;-61
2023/08/27 07:46:13;;;;;;;2.03;0.93;;;;;;;25.75;46.72;100658.13;5072735;28;20064;-61
2023/08/27 07:48:39;;;;;;;2.95;0.90;;;;;;;25.79;46.46;100668.41;5071292;28;20523;-62
2023/08/27 07:51:04;;;;;;;2.03;1.33;;;;;;;25.83;46.47;100675.09;5072591;28;20036;-62
2023/08/27 07:53:29;;;;;;;1.98;1.80;;;;;;;25.88;45.85;100672.50;5071451;28;20067;-62
2023/08/27 07:55:55;;;;;;;6.07;1.08;;;;;;;25.92;45.80;100665.47;5071453;28;20067;-62
2023/08/27 07:58:21;;;;;;;4.82;1.88;;;;;;;25.97;45.71;100662.84;5071181;28;20029;-62
2023/08/27 08:00:46;;;;;;;3.05;1.33;;;;;;;26.00;45.59;100661.56;5072651;28;20032;-62
2023/08/27 08:03:12;;;;;;;3.97;1.20;;;;;;;26.05;46.08;100665.28;5054729;28;20111;-63
2023/08/27 08:05:37;;;;;;;3.22;1.27;;;;;;;26.09;45.18;100664.81;5071287;28;20035;-62
2023/08/27 08:08:03;;;;;;;4.75;1.58;;;;;;;26.19;45.55;100673.31;5054259;28;20083;-62
2023/08/27 08:10:29;;;;;;;3.28;1.00;;;;;;;26.20;45.17;100677.75;5072523;28;20044;-62
2023/08/27 08:12:54;;;;;;;3.83;1.10;;;;;;;26.20;45.28;100673.09;5072732;28;20037;-63
2023/08/27 08:15:19;;;;;;;2.95;1.73;;;;;;;26.26;44.94;100679.56;5075180;28;20037;-61
2023/08/27 08:17:45;;;;;;;3.28;1.17;;;;;;;26.29;45.16;100679.09;5075543;28;20060;-62
2023/08/27 08:20:11;;;;;;;1.85;1.23;;;;;;;26.37;45.05;100678.75;5074985;28;20044;-62
2023/08/27 08:22:37;;;;;;;5.47;1.55;;;;;;;26.53;45.28;100680.81;5075376;28;20040;-62
2023/08/27 08:25:03;;;;;;;1.58;1.08;;;;;;;26.61;44.55;100669.47;5075071;28;20029;-62
2023/08/27 08:27:28;;;;;;;3.65;1.10;;;;;;;26.70;45.28;100662.53;5075483;28;20078;-65
2023/08/27 08:29:54;;;;;;;6.78;1.15;;;;;;;26.77;44.20;100668.78;5058303;28;20119;-63
2023/08/27 08:32:19;;;;;;;3.00;1.20;;;;;;;26.91;44.59;100664.72;5074845;28;20407;-62
2023/08/27 08:34:44;;;;;;;3.95;1.30;;;;;;;27.28;44.29;100664.41;5075114;28;20063;-61
2023/08/27 08:37:10;;;;;;;2.20;1.20;;;;;;;27.59;43.19;100662.09;5076247;28;20025;-62
2023/08/27 08:39:36;;;;;;;2.05;1.00;;;;;;;27.88;43.00;100654.69;5058256;28;20127;-61
2023/08/27 08:42:32;;;;;;;2.95;1.20;;;;;;;27.97;43.13;100658.72;5075991;28;20040;-62
2023/08/27 08:45:13;;;;;;;1.58;1.20;;;;;;;28.48;42.54;100656.84;5074762;28;20044;-61
2023/08/27 08:47:38;;;;;;;3.53;1.30;;;;;;;28.93;42.29;100649.34;5074503;28;20040;-61
2023/08/27 08:50:08;;;;;;;2.80;1.17;;;;;;;29.34;41.92;100654.34;5076023;28;20392;-61
2023/08/27 08:52:38;;;;;;;4.20;1.33;;;;;;;29.72;41.16;100650.66;5076129;28;20033;-62
2023/08/27 08:55:08;;;;;;;1.92;0.73;;;;;;;30.10;41.20;100646.09;5074709;28;20040;-62
2023/08/27 08:57:45;;;;;;;3.10;0.90;;;;;;;30.43;41.04;100651.44;5075788;28;20052;-61
2023/08/27 09:00:11;;;;;;;3.00;0.88;;;;;;;30.78;40.58;100648.06;5057616;28;20032;-61
2023/08/27 09:02:37;;;;;;;2.50;1.30;;;;;;;31.04;40.05;100639.72;5075571;28;20044;-62
2023/08/27 09:05:05;;;;;;;2.90;0.98;;;;;;;31.34;39.02;100632.63;5075670;28;20032;-61
2023/08/27 09:07:32;;;;;;;3.97;1.08;;;;;;;31.61;39.26;100634.16;5073943;28;20040;-61
2023/08/27 09:09:58;;;;;;;1.58;0.75;;;;;;;31.95;39.23;100631.75;5074170;28;20055;-61
2023/08/27 09:12:25;;;;;;;4.85;0.82;;;;;;;32.04;39.35;100634.84;5073644;28;20028;-61
2023/08/27 09:14:50;;;;;;;5.90;0.60;;;;;;;31.96;38.74;100615.94;5057333;28;20119;-62
2023/08/27 09:17:18;;;;;;;1.95;0.55;;;;;;;32.12;37.89;100625.97;5073428;28;20468;-62
2023/08/27 09:19:46;;;;;;;4.93;0.65;;;;;;;32.14;38.67;100623.75;5073904;28;20068;-62
2023/08/27 09:22:11;;;;;;;2.38;0.50;;;;;;;32.39;37.69;100632.06;5073894;28;20058;-60
2023/08/27 09:24:37;;;;;;;1.25;0.60;;;;;;;32.74;36.92;100629.31;5074913;28;20033;-62
2023/08/27 09:27:02;;;;;;;1.20;0.60;;;;;;;33.06;37.14;100625.34;5073596;28;20122;-62
2023/08/27 09:29:29;;;;;;;2.20;0.73;;;;;;;32.79;36.96;100634.00;5073517;28;20404;-61
2023/08/27 09:31:56;;;;;;;1.58;0.77;;;;;;;32.53;36.32;100630.41;5073654;28;20458;-61
2023/08/27 09:34:21;;;;;;;2.60;0.55;;;;;;;33.06;36.12;100630.91;5073648;28;20037;-62
2023/08/27 09:36:47;;;;;;;6.75;0.75;;;;;;;33.37;35.74;100627.75;5056960;28;20051;-62
2023/08/27 09:39:13;;;;;;;1.02;0.60;;;;;;;33.54;35.33;100621.81;5073595;28;20454;-62
2023/08/27 09:41:43;;;;;;;2.90;0.75;;;;;;;33.74;35.54;100620.91;5074756;28;20036;-62
2023/08/27 09:44:08;;;;;;;1.50;0.32;;;;;;;33.73;35.29;100617.28;5040199;28;20075;-62
2023/08/27 09:46:37;;;;;;;4.55;1.00;;;;;;;33.00;35.52;100626.47;5056728;28;20196;-62
2023/08/27 09:49:07;;;;;;;3.22;0.47;;;;;;;32.76;36.16;100626.25;5074848;28;20387;-62
2023/08/27 09:51:37;;;;;;;4.45;0.60;;;;;;;32.28;35.26;100628.47;5056749;28;20078;-62
2023/08/27 09:54:19;;;;;;;3.40;0.65;;;;;;;32.66;35.49;100616.00;5074776;28;20032;-62
2023/08/27 09:56:47;;;;;;;1.70;0.60;;;;;;;32.57;34.28;100634.31;5073528;28;20518;-62
2023/08/27 09:59:17;;;;;;;1.92;0.40;;;;;;;33.62;33.42;100615.69;5054360;28;20035;-62
2023/08/27 10:01:47;;;;;;;1.10;0.63;;;;;;;33.24;34.13;100624.75;5053315;28;20104;-62
2023/08/27 10:04:13;;;;;;;1.40;0.80;;;;;;;32.58;34.93;100627.63;5052864;28;20124;-62
2023/08/27 10:06:38;;;;;;;2.35;0.75;;;;;;;31.96;34.81;100627.88;5036267;28;20063;-62
2023/08/27 10:09:04;;;;;;;5.68;0.90;;;;;;;31.47;35.35;100619.16;5053126;28;20038;-62
2023/08/27 10:11:29;;;;;;;2.50;0.80;;;;;;;31.00;35.47;100623.91;5054172;28;20400;-61
2023/08/27 10:13:57;;;;;;;3.10;0.63;;;;;;;31.63;34.67;100618.09;5053137;28;20025;-62
2023/08/27 10:16:23;;;;;;;1.15;0.40;;;;;;;32.45;33.36;100619.88;5052897;28;20025;-62
2023/08/27 10:18:48;;;;;;;1.58;0.50;;;;;;;33.00;33.12;100609.81;5052917;28;20021;-62
2023/08/27 10:21:14;;;;;;;2.55;0.45;;;;;;;33.67;32.40;100612.88;5053843;28;20120;-62
2023/08/27 10:23:40;;;;;;;0.95;0.50;;;;;;;34.28;31.55;100610.53;5053845;28;20029;-62
2023/08/27 10:26:06;;;;;;;2.92;0.70;;;;;;;34.91;30.95;100602.13;5053667;28;20104;-62
2023/08/27 10:28:33;;;;;;;1.02;0.47;;;;;;;35.48;31.00;100602.03;5052683;28;20108;-62
2023/08/27 10:30:59;;;;;;;3.45;0.80;;;;;;;35.99;30.84;100590.09;5052790;28;20021;-64
2023/08/27 10:33:24;;;;;;;3.10;0.93;;;;;;;36.48;30.69;100592.38;5035921;28;20024;-62
2023/08/27 10:35:51;;;;;;;6.07;0.50;;;;;;;36.77;29.64;100587.38;5053201;28;20036;-62
2023/08/27 10:38:16;;;;;;;1.80;0.40;;;;;;;36.05;29.89;100588.94;5052659;28;20492;-62
2023/08/27 10:40:44;;;;;;;1.55;0.50;;;;;;;36.67;29.05;100591.22;5035743;28;20025;-62
2023/08/27 10:43:17;;;;;;;0.93;0.40;;;;;;;37.01;28.53;100593.66;5029192;28;20026;-62
2023/08/27 10:45:43;;;;;;;0.75;0.75;;;;;;;37.29;29.00;100586.06;5035912;28;20372;-62
2023/08/27 10:48:24;;;;;;;5.22;0.57;;;;;;;37.53;28.97;100583.03;5052738;28;20029;-63
2023/08/27 10:51:06;;;;;;;0.75;0.40;;;;;;;37.72;28.09;100575.31;5052341;28;20041;-63
2023/08/27 10:53:53;;;;;;;3.20;0.47;;;;;;;37.98;27.55;100586.75;5035800;28;20464;-62
2023/08/27 10:56:38;;;;;;;1.15;0.40;;;;;;;38.17;27.90;100585.44;5053367;28;20090;-63
2023/08/27 10:59:04;;;;;;;1.58;0.63;;;;;;;38.36;27.79;100577.69;5052336;28;20052;-63
2023/08/27 11:01:36;;;;;;;3.05;0.65;;;;;;;38.53;27.18;100578.94;5053411;28;20037;-63
2023/08/27 11:04:03;;;;;;;0.98;0.60;;;;;;;38.65;27.34;100587.56;5053409;28;20037;-63
2023/08/27 11:06:45;;;;;;;2.28;0.50;;;;;;;38.71;26.51;100589.91;5050620;28;20425;-63
2023/08/27 11:09:15;;;;;;;5.07;0.65;;;;;;;38.79;27.28;100591.97;5052019;28;20025;-63
2023/08/27 11:11:44;;;;;;;2.47;0.50;;;;;;;38.98;26.47;100594.50;5051778;28;20037;-63
2023/08/27 11:14:10;;;;;;;0.75;0.45;;;;;;;39.08;26.29;100587.78;5051915;28;20496;-63
2023/08/27 11:16:45;;;;;;;0.95;0.40;;;;;;;39.23;26.01;100585.38;5051910;28;20029;-63
2023/08/27 11:19:11;;;;;;;1.60;0.52;;;;;;;39.27;25.96;100586.38;5051596;28;20040;-63
2023/08/27 11:21:45;;;;;;;2.10;0.45;;;;;;;38.95;25.50;100583.94;5051525;28;20497;-63